This demonstration page uses our WeatherBlox Daily Observations layout. Learn more.

40.92501, -98.34201

Hourly Observations for October 2, 2020

Temp ( °F °C ) Dew Point ( °F °C ) Humidity (%) Winds ( mph kmh ) Pressure ( in mb ) Visibility ( mi km ) Precip ( " mm )
12:53 am 00:53 Clear 41 5 30 -1.1 65 65 ESE 5 7 30.32 1027 10 16.0934 0 0
1:53 am 01:53 Clear 40 4.4 30 -1.1 68 68 Calm 30.32 1027 10 16.0934 0 0
2:53 am 02:53 Clear 39 3.9 31 -0.6 73 73 Calm 30.32 1027 10 16.0934 0 0
3:53 am 03:53 Clear 40 4.4 31 -0.6 70 70 SSW 6 9 30.31 1026 10 16.0934 0 0
4:53 am 04:53 Clear 39 3.9 30 -1.1 70 70 SSW 5 7 30.3 1026 10 16.0934 0 0
5:53 am 05:53 Clear 37 2.8 30 -1.1 76 76 SE 3 6 30.29 1026 10 16.0934 0 0
6:53 am 06:53 Clear 38 3.3 30 -1.1 73 73 SSW 3 6 30.3 1026 10 16.0934 0 0
7:53 am 07:53 Sunny 34 1.1 28 -2.2 79 79 Calm 30.31 1026 9 14.48406 0 0
8:53 am 08:53 Sunny 44 6.7 34 1.1 68 68 S 9 15 30.29 1026 9 14.48406 0 0
9:53 am 09:53 Sunny 51 10.6 33 0.6 50 50 SSE 13 20 30.26 1025 10 16.0934 0 0
10:53 am 10:53 Sunny 56 13.3 33 0.6 42 42 SSE 14 22 30.23 1024 10 16.0934 0 0
11:53 am 11:53 Sunny 60 15.6 33 0.6 36 36 S 13 20 30.2 1023 10 16.0934 0 0
12:53 pm 12:53 Sunny 64 17.8 31 -0.6 29 29 S 10 17 30.16 1021 10 16.0934 0 0
1:53 pm 13:53 Mostly Sunny 67 19.4 30 -1.1 25 25 S 12 19 30.12 1020 10 16.0934 0 0
2:53 pm 14:53 Sunny 66 18.9 31 -0.6 27 27 S 15 24 30.07 1018 10 16.0934 0 0
3:53 pm 15:53 Sunny 66 18.9 31 -0.6 27 27 S 14 22 30.05 1018 10 16.0934 0 0
4:53 pm 16:53 Sunny 67 19.4 32 0 27 27 SE 10 17 30.02 1017 10 16.0934 0 0
5:53 pm 17:53 Sunny 69 20.6 31 -0.6 24 24 S 16 26 30 1016 10 16.0934 0 0
6:53 pm 18:53 Sunny 65 18.3 34 1.1 32 32 SE 6 9 30 1016 10 16.0934 0 0
7:53 pm 19:53 Partly Cloudy 63 17.2 34 1.1 34 34 SE 9 15 29.99 1016 10 16.0934 0 0
8:53 pm 20:53 Cloudy 62 16.7 35 1.7 37 37 ESE 6 9 30.02 1017 10 16.0934 0 0
9:53 pm 21:53 Cloudy 57 13.9 37 2.8 47 47 N 12 19 30.05 1018 10 16.0934 0.001 0.001
10:53 pm 22:53 Mostly Cloudy with Light Rain 51 10.6 42 5.6 71 71 NE 17 28 30.08 1019 10 16.0934 0.001 0.001
11:53 pm 23:53 Cloudy 50 10 41 5 71 71 ENE 9 15 30.04 1017 10 16.0934 0.001 0.001

Powered by AerisWeather